Time;durP1;ratioP1;P1;durP2;ratioP2;P2;SDS_P1;SDS_P2;PMS_P1;PMS_P2;Temp;Humidity;BMP_temperature;BMP_pressure;BME280_temperature;BME280_humidity;BME280_pressure;Samples;Min_cycle;Max_cycle;Signal;HPM_P1;HPM_P2
2023/12/08 00:01:15;;;;;;;6.63;3.10;;;1.10;99.90;;;;;;5015504;28;20194;-61
2023/12/08 00:03:41;;;;;;;6.17;2.80;;;1.10;99.90;;;;;;5015282;28;20261;-61
2023/12/08 00:06:10;;;;;;;11.53;4.67;;;1.10;99.90;;;;;;5015333;28;20643;-61
2023/12/08 00:08:37;;;;;;;10.37;3.37;;;1.00;99.90;;;;;;5014831;28;20418;-61
2023/12/08 00:11:03;;;;;;;4.97;3.33;;;1.10;99.90;;;;;;5030302;28;20555;-56
2023/12/08 00:13:29;;;;;;;9.07;3.93;;;1.00;99.90;;;;;;5022887;28;20417;-56
2023/12/08 00:15:54;;;;;;;7.53;3.53;;;1.00;99.90;;;;;;5017411;28;20775;-61
2023/12/08 00:18:21;;;;;;;8.10;3.80;;;0.90;99.90;;;;;;5034833;28;20185;-61
2023/12/08 00:20:47;;;;;;;7.73;3.83;;;1.00;99.90;;;;;;5034986;28;20173;-61
2023/12/08 00:23:12;;;;;;;28.67;4.10;;;1.00;99.90;;;;;;5024712;28;20508;-61
2023/12/08 00:25:38;;;;;;;8.93;4.43;;;1.00;99.90;;;;;;5018471;28;20202;-61
2023/12/08 00:28:04;;;;;;;7.40;3.70;;;1.00;99.90;;;;;;5034828;28;20190;-62
2023/12/08 00:30:30;;;;;;;10.97;3.93;;;1.10;99.90;;;;;;5017885;28;20195;-57
2023/12/08 00:32:56;;;;;;;6.47;3.40;;;1.00;99.90;;;;;;5012668;28;20794;-57
2023/12/08 00:35:22;;;;;;;5.77;3.40;;;0.80;99.90;;;;;;5013161;28;20837;-57
2023/12/08 00:37:48;;;;;;;8.03;4.13;;;0.80;99.90;;;;;;5012679;28;20414;-58
2023/12/08 00:40:15;;;;;;;14.33;4.70;;;0.90;99.90;;;;;;5012726;28;20516;-61
2023/12/08 00:42:40;;;;;;;8.33;4.30;;;0.90;99.90;;;;;;5014849;28;20627;-62
2023/12/08 00:45:06;;;;;;;11.60;3.83;;;0.90;99.90;;;;;;5014493;28;20480;-63
2023/12/08 00:47:31;;;;;;;10.03;4.87;;;1.00;99.90;;;;;;5014849;28;20262;-62
2023/12/08 00:49:57;;;;;;;9.20;4.80;;;1.00;99.90;;;;;;5014608;28;20647;-62
2023/12/08 00:52:23;;;;;;;6.30;3.70;;;1.00;99.90;;;;;;4997707;28;20208;-62
2023/12/08 00:54:49;;;;;;;9.70;4.60;;;1.10;99.90;;;;;;5004878;28;20213;-62
2023/12/08 00:57:15;;;;;;;9.30;4.00;;;1.00;99.90;;;;;;5014475;28;20179;-62
2023/12/08 00:59:40;;;;;;;8.20;4.40;;;1.00;99.90;;;;;;5014271;28;20252;-62
2023/12/08 01:02:06;;;;;;;7.97;3.80;;;1.00;99.90;;;;;;5024134;28;20433;-62
2023/12/08 01:04:31;;;;;;;7.27;3.57;;;1.00;99.90;;;;;;5017947;28;20186;-62
2023/12/08 01:06:57;;;;;;;11.47;4.80;;;1.10;99.90;;;;;;5012807;28;20922;-58
2023/12/08 01:09:22;;;;;;;11.53;4.37;;;1.00;99.90;;;;;;5012046;28;20191;-58
2023/12/08 01:11:48;;;;;;;6.17;3.23;;;1.00;99.90;;;;;;5011469;28;20213;-58
2023/12/08 01:14:13;;;;;;;10.13;4.27;;;1.00;99.90;;;;;;5012109;28;20217;-57
2023/12/08 01:16:42;;;;;;;13.20;5.50;;;1.00;99.90;;;;;;5012668;28;20194;-57
2023/12/08 01:19:09;;;;;;;9.80;4.57;;;1.10;99.90;;;;;;5011213;28;20198;-57
2023/12/08 01:21:36;;;;;;;8.73;4.63;;;1.10;99.90;;;;;;5022752;28;20432;-62
2023/12/08 01:24:02;;;;;;;22.13;4.53;;;1.10;99.90;;;;;;5017424;28;20414;-62
2023/12/08 01:26:27;;;;;;;9.10;4.30;;;1.20;99.90;;;;;;5014225;28;20917;-63
2023/12/08 01:28:53;;;;;;;12.13;4.87;;;1.20;99.90;;;;;;5027652;28;20277;-63
2023/12/08 01:31:18;;;;;;;10.60;4.70;;;1.10;99.90;;;;;;5012782;28;20207;-58
2023/12/08 01:33:44;;;;;;;12.70;5.27;;;1.10;99.90;;;;;;5012050;28;20190;-57
2023/12/08 01:36:10;;;;;;;10.40;3.93;;;1.10;99.90;;;;;;5013055;28;20183;-61
2023/12/08 01:38:36;;;;;;;12.63;5.30;;;1.20;99.90;;;;;;5024763;28;20545;-62
2023/12/08 01:41:01;;;;;;;11.70;4.40;;;1.20;99.90;;;;;;5013725;28;20475;-62
2023/12/08 01:43:27;;;;;;;8.43;3.80;;;1.20;99.90;;;;;;5014018;28;20193;-62
2023/12/08 01:45:56;;;;;;;10.00;4.40;;;1.20;99.90;;;;;;5013807;28;20262;-62
2023/12/08 01:48:21;;;;;;;9.93;4.07;;;1.20;99.90;;;;;;5013937;28;20612;-62
2023/12/08 01:50:47;;;;;;;7.70;4.20;;;1.10;99.90;;;;;;5012924;28;20426;-58
2023/12/08 01:53:12;;;;;;;8.73;3.30;;;1.10;99.90;;;;;;5011605;28;20655;-57
2023/12/08 01:55:38;;;;;;;10.37;4.57;;;1.10;99.90;;;;;;5012679;28;20187;-61
2023/12/08 01:58:04;;;;;;;8.37;4.10;;;1.20;99.90;;;;;;5014086;28;20557;-62
2023/12/08 02:00:30;;;;;;;7.63;3.67;;;1.10;99.90;;;;;;5013821;28;20182;-62
2023/12/08 02:02:56;;;;;;;6.90;3.70;;;1.10;99.90;;;;;;5017172;28;20186;-62
2023/12/08 02:05:24;;;;;;;6.90;3.60;;;1.10;99.90;;;;;;5016872;28;20418;-57
2023/12/08 02:07:50;;;;;;;11.80;4.60;;;1.10;99.90;;;;;;5011423;28;20440;-58
2023/12/08 02:10:16;;;;;;;12.50;4.40;;;1.10;99.90;;;;;;5011915;28;20433;-57
2023/12/08 02:12:41;;;;;;;5.70;3.60;;;1.10;99.90;;;;;;5010626;28;20476;-58
2023/12/08 02:15:07;;;;;;;7.07;3.90;;;1.10;99.90;;;;;;5011733;28;20254;-61
2023/12/08 02:17:38;;;;;;;8.03;4.20;;;1.10;99.90;;;;;;5013734;28;20217;-62
2023/12/08 02:20:09;;;;;;;6.70;3.93;;;1.10;99.90;;;;;;5013323;28;20438;-62
2023/12/08 02:22:35;;;;;;;7.20;3.93;;;1.10;99.90;;;;;;5010660;28;20425;-58
2023/12/08 02:25:01;;;;;;;10.33;3.67;;;1.10;99.90;;;;;;5011539;28;20426;-58
2023/12/08 02:27:27;;;;;;;10.73;4.63;;;1.00;99.90;;;;;;5013554;28;20219;-62
2023/12/08 02:29:53;;;;;;;4.60;3.10;;;1.10;99.90;;;;;;5025882;28;20460;-62
2023/12/08 02:32:31;;;;;;;7.23;3.40;;;1.10;99.90;;;;;;5026088;28;20458;-58
2023/12/08 02:35:01;;;;;;;7.87;4.07;;;1.20;99.90;;;;;;5009422;28;20898;-57
2023/12/08 02:37:30;;;;;;;8.90;4.20;;;1.20;99.90;;;;;;5023443;28;20844;-62
2023/12/08 02:39:57;;;;;;;5.47;3.03;;;1.20;99.90;;;;;;5021204;28;20958;-62
2023/12/08 02:42:22;;;;;;;7.80;4.03;;;1.20;99.90;;;;;;5017158;28;20413;-62
2023/12/08 02:44:47;;;;;;;8.80;3.40;;;1.20;99.90;;;;;;5016797;28;20409;-62
2023/12/08 02:47:13;;;;;;;9.27;3.87;;;1.30;99.90;;;;;;5017119;28;20205;-62
2023/12/08 02:49:39;;;;;;;7.30;3.57;;;1.20;99.90;;;;;;5018566;28;20175;-62
2023/12/08 02:52:04;;;;;;;5.63;3.43;;;1.20;99.90;;;;;;5036670;28;20209;-61
2023/12/08 02:54:30;;;;;;;6.13;3.50;;;1.20;99.90;;;;;;5027874;28;20628;-62
2023/12/08 02:56:55;;;;;;;8.47;3.47;;;1.20;99.90;;;;;;5016781;28;20632;-63
2023/12/08 02:59:21;;;;;;;7.10;4.20;;;1.20;99.90;;;;;;5017025;28;20187;-62
2023/12/08 03:01:46;;;;;;;7.17;3.70;;;1.20;99.90;;;;;;5015099;28;20198;-57
2023/12/08 03:04:12;;;;;;;7.20;3.50;;;1.10;99.90;;;;;;5014929;28;20218;-58
2023/12/08 03:06:37;;;;;;;7.30;4.30;;;1.20;99.90;;;;;;5014411;28;20614;-57
2023/12/08 03:09:04;;;;;;;8.37;3.70;;;1.10;99.90;;;;;;5014186;28;20739;-57
2023/12/08 03:11:29;;;;;;;8.10;4.07;;;1.10;99.90;;;;;;5014566;28;20292;-57
2023/12/08 03:13:55;;;;;;;7.20;3.90;;;1.10;99.90;;;;;;5013910;28;20915;-58
2023/12/08 03:16:20;;;;;;;7.67;3.03;;;1.10;99.90;;;;;;5014251;28;20191;-57
2023/12/08 03:18:46;;;;;;;7.90;4.10;;;1.10;99.90;;;;;;5013679;28;20183;-58
2023/12/08 03:21:21;;;;;;;9.80;4.10;;;1.10;99.90;;;;;;5015055;28;20179;-62
2023/12/08 03:23:46;;;;;;;6.80;3.80;;;1.10;99.90;;;;;;5016098;28;20536;-62
2023/12/08 03:26:12;;;;;;;7.90;4.00;;;1.10;99.90;;;;;;5015134;28;20472;-57
2023/12/08 03:28:37;;;;;;;7.23;3.93;;;1.20;99.90;;;;;;5013694;28;20202;-58
2023/12/08 03:31:03;;;;;;;9.50;4.10;;;1.20;99.90;;;;;;5015010;28;20253;-63
2023/12/08 03:33:28;;;;;;;22.33;4.47;;;1.20;99.90;;;;;;5016159;28;20201;-63
2023/12/08 03:35:54;;;;;;;9.47;3.40;;;1.20;99.90;;;;;;5016137;28;20195;-63
2023/12/08 03:38:20;;;;;;;8.20;3.70;;;1.30;99.90;;;;;;5029443;28;20190;-63
2023/12/08 03:40:45;;;;;;;8.10;3.17;;;1.30;99.90;;;;;;5035022;28;20215;-57
2023/12/08 03:43:11;;;;;;;5.50;3.23;;;1.50;99.90;;;;;;5018814;28;20758;-57
2023/12/08 03:45:36;;;;;;;6.23;2.80;;;1.50;99.90;;;;;;5014430;28;20262;-61
2023/12/08 03:48:02;;;;;;;11.23;2.80;;;1.60;99.90;;;;;;5015813;28;20176;-62
2023/12/08 03:50:27;;;;;;;8.37;2.67;;;1.60;99.90;;;;;;5015823;28;20665;-62
2023/12/08 03:52:54;;;;;;;8.47;3.53;;;1.60;99.90;;;;;;5016463;28;20253;-62
2023/12/08 03:55:21;;;;;;;9.37;3.33;;;1.70;99.90;;;;;;5027840;28;20179;-58
2023/12/08 03:57:46;;;;;;;10.30;3.40;;;1.70;99.90;;;;;;5012983;28;20494;-58
2023/12/08 04:00:12;;;;;;;5.07;2.90;;;1.80;99.90;;;;;;5014000;28;20430;-61
2023/12/08 04:02:38;;;;;;;12.90;3.93;;;1.80;99.90;;;;;;5029790;28;20568;-61
2023/12/08 04:05:04;;;;;;;6.30;3.17;;;1.80;99.90;;;;;;5028005;28;20429;-62
2023/12/08 04:07:29;;;;;;;5.10;2.87;;;1.90;99.90;;;;;;5015654;28;20258;-62
2023/12/08 04:09:55;;;;;;;5.87;3.70;;;1.80;99.90;;;;;;5015504;28;20604;-62
2023/12/08 04:12:21;;;;;;;7.33;4.00;;;1.90;99.90;;;;;;5012954;28;20215;-58
2023/12/08 04:14:46;;;;;;;7.47;3.40;;;1.90;99.90;;;;;;5013267;28;20549;-58
2023/12/08 04:17:12;;;;;;;6.80;4.10;;;2.00;99.90;;;;;;5015184;28;20422;-62
2023/12/08 04:19:37;;;;;;;5.37;3.27;;;1.90;99.90;;;;;;5014601;28;20254;-62
2023/12/08 04:22:03;;;;;;;5.07;2.97;;;2.00;99.90;;;;;;5015104;28;20210;-63
2023/12/08 04:24:29;;;;;;;9.47;3.60;;;1.90;99.90;;;;;;5014928;28;20536;-63
2023/12/08 04:26:54;;;;;;;7.27;3.40;;;1.80;99.90;;;;;;5014887;28;20414;-63
2023/12/08 04:29:20;;;;;;;5.33;2.97;;;1.80;99.90;;;;;;5015002;28;20638;-63
2023/12/08 04:31:45;;;;;;;5.40;2.70;;;1.80;99.90;;;;;;5014858;28;20218;-63
2023/12/08 04:34:11;;;;;;;10.33;2.57;;;2.00;99.90;;;;;;5014905;28;20171;-63
2023/12/08 04:36:36;;;;;;;8.40;3.33;;;2.10;99.90;;;;;;5013428;28;20194;-58
2023/12/08 04:39:02;;;;;;;5.43;2.63;;;2.20;99.90;;;;;;5012612;28;20567;-58
2023/12/08 04:41:27;;;;;;;6.03;2.97;;;2.30;99.90;;;;;;5013866;28;20230;-62
2023/12/08 04:43:53;;;;;;;5.90;3.07;;;2.40;99.90;;;;;;5020916;28;20178;-62
2023/12/08 04:46:18;;;;;;;8.27;3.50;;;2.40;99.90;;;;;;5028602;28;20232;-62
2023/12/08 04:48:44;;;;;;;6.20;3.17;;;2.40;99.90;;;;;;5034238;28;20265;-62
2023/12/08 04:51:09;;;;;;;7.97;4.37;;;2.40;99.90;;;;;;5020780;28;20202;-62
2023/12/08 04:53:35;;;;;;;9.80;4.17;;;2.30;99.90;;;;;;5014210;28;20180;-62
2023/12/08 04:56:00;;;;;;;8.00;4.30;;;2.20;99.90;;;;;;5013635;28;20531;-62
2023/12/08 04:58:26;;;;;;;9.50;3.93;;;2.10;99.90;;;;;;5013949;28;20192;-62
2023/12/08 05:00:51;;;;;;;6.20;4.27;;;2.10;99.90;;;;;;5013587;28;20226;-58
2023/12/08 05:03:17;;;;;;;12.67;4.40;;;2.00;99.90;;;;;;5012534;28;20249;-58
2023/12/08 05:05:43;;;;;;;9.50;4.30;;;2.00;99.90;;;;;;5012992;28;20270;-62
2023/12/08 05:08:08;;;;;;;9.03;3.80;;;1.90;99.90;;;;;;5007986;28;20226;-62
2023/12/08 05:10:34;;;;;;;10.30;4.13;;;1.90;99.90;;;;;;5014089;28;20218;-62
2023/12/08 05:12:59;;;;;;;7.93;4.27;;;1.80;99.90;;;;;;5027011;28;20661;-62
2023/12/08 05:15:25;;;;;;;7.27;4.00;;;1.80;99.90;;;;;;5013683;28;20180;-58
2023/12/08 05:17:50;;;;;;;6.73;3.63;;;1.80;99.90;;;;;;5011507;28;20186;-58
2023/12/08 05:20:16;;;;;;;10.00;4.00;;;1.90;99.90;;;;;;5012547;28;20179;-58
2023/12/08 05:22:42;;;;;;;7.17;3.70;;;1.90;99.90;;;;;;5012206;28;20195;-58
2023/12/08 05:25:09;;;;;;;18.83;4.60;;;1.90;99.90;;;;;;5012172;28;20191;-58
2023/12/08 05:27:35;;;;;;;3.40;2.70;;;1.90;99.90;;;;;;5011671;28;20183;-58
2023/12/08 05:30:00;;;;;;;4.93;2.90;;;1.90;99.90;;;;;;5012483;28;20433;-57
2023/12/08 05:32:26;;;;;;;5.93;3.00;;;1.90;99.90;;;;;;5018533;28;20222;-62
2023/12/08 05:34:51;;;;;;;9.70;3.33;;;1.80;99.90;;;;;;5033240;28;20261;-62
2023/12/08 05:37:17;;;;;;;9.70;3.63;;;1.80;99.90;;;;;;5014708;28;20190;-62
2023/12/08 05:39:42;;;;;;;12.30;3.10;;;1.90;99.90;;;;;;5015825;28;20218;-62
2023/12/08 05:42:08;;;;;;;6.27;3.03;;;1.90;99.90;;;;;;5032691;28;20208;-59
2023/12/08 05:44:33;;;;;;;4.60;2.67;;;1.90;99.90;;;;;;5021885;28;20376;-59
2023/12/08 05:46:59;;;;;;;4.70;2.20;;;1.90;99.90;;;;;;5026339;28;20182;-59
2023/12/08 05:49:25;;;;;;;5.10;2.77;;;1.90;99.90;;;;;;5014622;28;20635;-59
2023/12/08 05:51:51;;;;;;;4.73;2.70;;;1.90;99.90;;;;;;5028815;28;20209;-59
2023/12/08 05:54:16;;;;;;;6.77;2.70;;;1.90;99.90;;;;;;5031519;28;20421;-61
2023/12/08 05:56:42;;;;;;;3.97;2.50;;;1.80;99.90;;;;;;5014618;28;20186;-61
2023/12/08 05:59:07;;;;;;;5.93;3.07;;;1.80;99.90;;;;;;5028997;28;20204;-62
2023/12/08 06:01:33;;;;;;;7.70;3.60;;;1.80;99.90;;;;;;5018437;28;20262;-62
2023/12/08 06:03:58;;;;;;;9.43;3.67;;;1.80;99.90;;;;;;5027439;28;20233;-62
2023/12/08 06:06:24;;;;;;;6.33;2.90;;;1.70;99.90;;;;;;5012776;28;20195;-61
2023/12/08 06:08:49;;;;;;;8.13;3.57;;;1.70;99.90;;;;;;5015322;28;20241;-61
2023/12/08 06:11:15;;;;;;;6.40;3.33;;;1.60;99.90;;;;;;5029116;28;20195;-58
2023/12/08 06:13:41;;;;;;;4.23;2.80;;;1.60;99.90;;;;;;5015331;28;20187;-58
2023/12/08 06:16:07;;;;;;;9.33;3.97;;;1.60;99.90;;;;;;5015822;28;20176;-58
2023/12/08 06:18:32;;;;;;;4.13;2.37;;;1.60;99.90;;;;;;5017558;28;20422;-58
2023/12/08 06:20:58;;;;;;;6.80;2.97;;;1.50;99.90;;;;;;5014911;28;20689;-58
2023/12/08 06:23:24;;;;;;;13.60;3.77;;;1.60;99.90;;;;;;5026546;28;20767;-58
2023/12/08 06:25:49;;;;;;;5.83;3.70;;;1.60;99.90;;;;;;5015382;28;20191;-61
2023/12/08 06:28:15;;;;;;;5.43;3.73;;;1.60;99.90;;;;;;5023943;28;20189;-61
2023/12/08 06:30:40;;;;;;;5.80;3.80;;;1.70;99.90;;;;;;5017702;28;20225;-58
2023/12/08 06:33:06;;;;;;;4.20;2.80;;;1.70;99.90;;;;;;5019982;28;20294;-59
2023/12/08 06:35:31;;;;;;;5.97;3.00;;;1.70;99.90;;;;;;5015292;28;20187;-58
2023/12/08 06:37:56;;;;;;;4.37;2.90;;;1.60;99.90;;;;;;5015027;28;20671;-58
2023/12/08 06:40:22;;;;;;;10.10;4.53;;;1.70;99.90;;;;;;5020627;28;20223;-61
2023/12/08 06:42:47;;;;;;;9.90;4.00;;;1.60;99.90;;;;;;5014259;28;20195;-61
2023/12/08 06:45:13;;;;;;;5.80;3.10;;;1.60;99.90;;;;;;5021116;28;20195;-58
2023/12/08 06:47:39;;;;;;;6.87;3.30;;;1.70;99.90;;;;;;5014964;28;20209;-58
2023/12/08 06:50:05;;;;;;;4.70;2.87;;;1.70;99.90;;;;;;5014867;28;20210;-58
2023/12/08 06:52:31;;;;;;;4.97;3.00;;;1.70;99.90;;;;;;5015112;28;20214;-61
2023/12/08 06:54:57;;;;;;;4.93;2.77;;;1.70;99.90;;;;;;5015068;28;20418;-61
2023/12/08 06:57:22;;;;;;;14.43;4.27;;;1.80;99.90;;;;;;5014319;28;20994;-61
2023/12/08 06:59:48;;;;;;;6.13;3.60;;;1.80;99.90;;;;;;5028234;28;20175;-61
2023/12/08 07:02:14;;;;;;;6.70;3.47;;;1.90;99.90;;;;;;5014975;28;20262;-61
2023/12/08 07:04:40;;;;;;;7.03;3.40;;;2.00;99.90;;;;;;5014822;28;20218;-61
2023/12/08 07:07:05;;;;;;;6.30;3.23;;;2.00;99.90;;;;;;5014740;28;20457;-61
2023/12/08 07:09:31;;;;;;;7.67;3.10;;;2.10;99.90;;;;;;5002751;28;21067;-61
2023/12/08 07:11:56;;;;;;;7.30;3.20;;;2.10;99.90;;;;;;5012656;28;20688;-61
2023/12/08 07:14:22;;;;;;;4.73;2.53;;;2.20;99.90;;;;;;5013939;28;20198;-60
2023/12/08 07:16:47;;;;;;;6.70;3.70;;;2.20;99.90;;;;;;5014155;28;20183;-60
2023/12/08 07:19:13;;;;;;;5.43;3.23;;;2.20;99.90;;;;;;5018548;28;20652;-61
2023/12/08 07:21:42;;;;;;;7.63;3.30;;;2.20;99.90;;;;;;5016888;28;20263;-59
2023/12/08 07:24:08;;;;;;;5.40;3.07;;;2.30;99.90;;;;;;5020498;28;20194;-59
2023/12/08 07:26:34;;;;;;;8.60;4.30;;;2.30;99.90;;;;;;5013654;28;20426;-59
2023/12/08 07:28:59;;;;;;;7.40;3.60;;;2.30;99.90;;;;;;5012445;28;20910;-58
2023/12/08 07:31:25;;;;;;;12.57;3.97;;;2.40;99.90;;;;;;5013326;28;20289;-61
2023/12/08 07:33:50;;;;;;;7.80;4.37;;;2.40;99.90;;;;;;5013225;28;20681;-60
2023/12/08 07:36:16;;;;;;;7.70;4.07;;;2.40;99.90;;;;;;5014095;28;20249;-60
2023/12/08 07:38:41;;;;;;;6.17;2.93;;;2.40;99.90;;;;;;5015219;28;20202;-61
2023/12/08 07:41:07;;;;;;;9.23;3.53;;;2.50;99.90;;;;;;5023625;28;20636;-61
2023/12/08 07:43:32;;;;;;;5.50;2.93;;;2.50;99.90;;;;;;5013746;28;20198;-61
2023/12/08 07:45:59;;;;;;;7.07;4.17;;;2.50;99.90;;;;;;5013505;28;20202;-58
2023/12/08 07:48:25;;;;;;;7.33;4.20;;;2.60;99.90;;;;;;5012969;28;20192;-58
2023/12/08 07:50:50;;;;;;;5.90;3.97;;;2.60;99.90;;;;;;4995097;28;20444;-60
2023/12/08 07:53:16;;;;;;;5.67;3.70;;;2.60;99.90;;;;;;5013456;28;20214;-61
2023/12/08 07:55:41;;;;;;;7.90;4.17;;;2.60;99.90;;;;;;5024306;28;20182;-61
2023/12/08 07:58:07;;;;;;;8.03;3.83;;;2.60;99.90;;;;;;5014906;28;20179;-61
2023/12/08 08:00:32;;;;;;;4.77;2.80;;;2.70;99.90;;;;;;5013146;28;20262;-61
2023/12/08 08:02:58;;;;;;;7.90;4.47;;;2.80;99.90;;;;;;5012741;28;20265;-60
2023/12/08 08:05:24;;;;;;;8.27;3.93;;;2.80;99.90;;;;;;5022688;28;20186;-60
2023/12/08 08:07:50;;;;;;;8.30;4.30;;;2.90;99.90;;;;;;5022699;28;20196;-60
2023/12/08 08:10:15;;;;;;;9.97;4.40;;;2.90;99.90;;;;;;5012276;28;20529;-60
2023/12/08 08:12:41;;;;;;;9.80;4.43;;;2.90;99.90;;;;;;5011918;28;20290;-61
2023/12/08 08:15:07;;;;;;;12.43;5.10;;;3.00;99.90;;;;;;5016434;28;20202;-58
2023/12/08 08:17:32;;;;;;;10.07;5.37;;;3.00;99.90;;;;;;5029245;28;20506;-58
2023/12/08 08:19:58;;;;;;;9.03;4.80;;;3.00;99.90;;;;;;5015081;28;20223;-59
2023/12/08 08:22:24;;;;;;;12.73;4.93;;;3.20;99.90;;;;;;5024308;28;20191;-61
2023/12/08 08:24:49;;;;;;;9.50;4.30;;;3.20;99.90;;;;;;5027604;28;20603;-61
2023/12/08 08:27:14;;;;;;;7.63;4.00;;;3.20;99.90;;;;;;5015401;28;20209;-58
2023/12/08 08:29:40;;;;;;;7.90;4.60;;;3.20;99.90;;;;;;5011662;28;20195;-59
2023/12/08 08:32:06;;;;;;;8.17;4.60;;;3.30;99.90;;;;;;5010544;28;20217;-58
2023/12/08 08:34:31;;;;;;;10.50;4.50;;;3.30;99.90;;;;;;5016673;28;20191;-58
2023/12/08 08:36:57;;;;;;;7.10;3.93;;;3.40;99.90;;;;;;5015344;28;20187;-61
2023/12/08 08:39:22;;;;;;;6.37;4.00;;;3.40;99.90;;;;;;5010441;28;20264;-61
2023/12/08 08:41:48;;;;;;;6.03;3.60;;;3.50;99.90;;;;;;5012307;28;20256;-58
2023/12/08 08:44:14;;;;;;;8.40;4.57;;;3.50;99.90;;;;;;5020207;28;20769;-58
2023/12/08 08:46:44;;;;;;;5.33;3.43;;;3.60;99.90;;;;;;5012293;28;20225;-61
2023/12/08 08:49:10;;;;;;;13.13;4.00;;;3.60;99.90;;;;;;5010356;28;20211;-61
2023/12/08 08:51:36;;;;;;;5.87;3.63;;;3.70;99.90;;;;;;5010242;28;20461;-58
2023/12/08 08:54:02;;;;;;;6.47;3.67;;;3.70;99.90;;;;;;5010975;28;20910;-59
2023/12/08 08:56:27;;;;;;;8.50;4.27;;;3.60;99.90;;;;;;5014543;28;20653;-61
2023/12/08 08:58:53;;;;;;;8.53;3.93;;;3.70;99.90;;;;;;5011399;28;20433;-61
2023/12/08 09:01:18;;;;;;;14.00;4.57;;;3.70;99.90;;;;;;5011325;28;20191;-58
2023/12/08 09:03:44;;;;;;;7.20;3.73;;;3.70;99.90;;;;;;5011231;28;20199;-58
2023/12/08 09:06:09;;;;;;;6.63;4.00;;;3.80;99.90;;;;;;5019150;28;20543;-58
2023/12/08 09:08:35;;;;;;;8.60;4.77;;;3.70;99.90;;;;;;5012129;28;20183;-59
2023/12/08 09:11:01;;;;;;;6.60;3.53;;;3.80;99.90;;;;;;5011282;28;20183;-61
2023/12/08 09:13:28;;;;;;;8.40;4.20;;;3.80;99.90;;;;;;5011789;28;20183;-61
2023/12/08 09:15:54;;;;;;;8.40;3.93;;;3.90;99.90;;;;;;5012265;28;20190;-61
2023/12/08 09:18:20;;;;;;;7.20;3.87;;;3.90;99.90;;;;;;5012388;28;20795;-62
2023/12/08 09:20:46;;;;;;;7.20;4.37;;;4.00;99.90;;;;;;5012018;28;20226;-58
2023/12/08 09:23:11;;;;;;;11.53;3.70;;;3.90;99.90;;;;;;5011434;28;20424;-58
2023/12/08 09:25:37;;;;;;;13.07;4.07;;;3.90;99.90;;;;;;5012380;28;20187;-62
2023/12/08 09:28:02;;;;;;;7.80;3.70;;;3.90;99.90;;;;;;5013963;28;20205;-61
2023/12/08 09:30:28;;;;;;;7.60;4.33;;;3.90;99.90;;;;;;5010995;28;20273;-58
2023/12/08 09:32:53;;;;;;;6.40;3.30;;;4.00;99.90;;;;;;5002644;28;20218;-58
2023/12/08 09:35:19;;;;;;;8.10;3.40;;;4.00;99.90;;;;;;5008377;28;20238;-58
2023/12/08 09:37:45;;;;;;;9.00;3.30;;;4.00;99.90;;;;;;5010742;28;20909;-58
2023/12/08 09:40:16;;;;;;;8.53;3.47;;;3.90;99.90;;;;;;5006131;28;20227;-61
2023/12/08 09:42:55;;;;;;;5.57;3.30;;;4.00;99.90;;;;;;5018975;28;20208;-61
2023/12/08 09:45:21;;;;;;;6.50;3.60;;;4.00;99.90;;;;;;5017006;28;20476;-61
2023/12/08 09:47:49;;;;;;;8.50;3.97;;;4.00;99.90;;;;;;5017698;28;20414;-61
2023/12/08 09:50:15;;;;;;;9.33;3.53;;;4.00;99.90;;;;;;5017078;28;20218;-61
2023/12/08 09:52:41;;;;;;;7.63;4.07;;;4.10;99.90;;;;;;5025781;28;20464;-62
2023/12/08 09:55:07;;;;;;;6.80;3.60;;;4.20;99.90;;;;;;5021690;28;20261;-58
2023/12/08 09:57:37;;;;;;;12.90;3.63;;;4.20;99.90;;;;;;4991730;28;20524;-58
2023/12/08 10:00:06;;;;;;;7.57;3.93;;;4.20;99.90;;;;;;5009915;28;20516;-58
2023/12/08 10:02:33;;;;;;;8.20;3.43;;;4.20;99.90;;;;;;5017768;28;20421;-61
2023/12/08 10:04:58;;;;;;;7.37;3.60;;;4.30;99.90;;;;;;5018302;28;20889;-62
2023/12/08 10:07:28;;;;;;;7.40;3.77;;;4.30;99.90;;;;;;5012781;28;20469;-62
2023/12/08 10:09:53;;;;;;;6.20;3.40;;;4.30;99.90;;;;;;5014629;28;20608;-62
2023/12/08 10:12:19;;;;;;;5.57;3.10;;;4.40;99.90;;;;;;5012465;28;20545;-62
2023/12/08 10:14:58;;;;;;;4.03;2.80;;;4.50;99.90;;;;;;5018084;28;20183;-62
2023/12/08 10:17:24;;;;;;;5.47;3.07;;;4.40;99.90;;;;;;5010943;28;20214;-62
2023/12/08 10:19:53;;;;;;;5.97;3.00;;;4.50;99.90;;;;;;5012157;28;20438;-62
2023/12/08 10:22:19;;;;;;;5.40;3.10;;;4.50;99.90;;;;;;5019537;28;20434;-62
2023/12/08 10:24:45;;;;;;;8.10;3.40;;;4.60;99.90;;;;;;5011587;28;20801;-62
2023/12/08 10:27:11;;;;;;;5.13;2.33;;;4.60;99.90;;;;;;5017388;28;20430;-62
2023/12/08 10:29:37;;;;;;;5.17;2.80;;;4.60;99.90;;;;;;5015396;28;20440;-62
2023/12/08 10:32:04;;;;;;;5.23;2.90;;;4.60;99.90;;;;;;5010312;28;20199;-58
2023/12/08 10:34:30;;;;;;;5.50;3.30;;;4.60;99.90;;;;;;5007745;28;20418;-58
2023/12/08 10:36:56;;;;;;;8.50;2.40;;;4.70;99.90;;;;;;5007416;28;20461;-58
2023/12/08 10:39:23;;;;;;;5.73;3.23;;;4.80;99.90;;;;;;5006076;28;20430;-59
2023/12/08 10:41:49;;;;;;;6.63;2.80;;;4.80;99.90;;;;;;5007703;28;20278;-61
2023/12/08 10:44:19;;;;;;;6.47;1.97;;;4.70;99.90;;;;;;5002341;28;21203;-62
2023/12/08 10:46:47;;;;;;;4.13;2.23;;;4.90;99.90;;;;;;5007715;28;20415;-58
2023/12/08 10:49:16;;;;;;;2.97;1.90;;;4.90;99.90;;;;;;5001626;28;20487;-58
2023/12/08 10:51:44;;;;;;;4.57;2.47;;;4.90;99.90;;;;;;5002236;28;20503;-62
2023/12/08 10:54:12;;;;;;;4.03;2.37;;;5.00;99.90;;;;;;4998438;28;20439;-62
2023/12/08 10:56:38;;;;;;;3.97;2.30;;;5.10;99.90;;;;;;4994430;28;20415;-62
2023/12/08 10:59:09;;;;;;;5.20;1.80;;;5.10;99.90;;;;;;5005572;28;20425;-62
2023/12/08 11:01:35;;;;;;;4.33;2.00;;;5.20;99.90;;;;;;4994528;28;20191;-58
2023/12/08 11:04:05;;;;;;;3.67;2.00;;;5.20;99.90;;;;;;5010453;28;20465;-58
2023/12/08 11:06:39;;;;;;;4.53;2.50;;;5.30;99.90;;;;;;5011882;28;20425;-61
2023/12/08 11:09:07;;;;;;;4.97;1.87;;;5.30;99.90;;;;;;5000165;28;20430;-62
2023/12/08 11:11:34;;;;;;;3.60;2.30;;;5.30;99.90;;;;;;4994800;28;21086;-62
2023/12/08 11:14:13;;;;;;;4.77;2.13;;;5.30;99.90;;;;;;5002763;28;20463;-62
2023/12/08 11:16:57;;;;;;;3.63;1.90;;;5.30;99.90;;;;;;5008713;28;20414;-59
2023/12/08 11:19:23;;;;;;;4.80;2.37;;;5.40;99.90;;;;;;5008995;28;20418;-58
2023/12/08 11:21:48;;;;;;;3.80;2.10;;;5.40;99.90;;;;;;5000155;28;21009;-62
2023/12/08 11:24:14;;;;;;;3.90;2.00;;;5.40;99.90;;;;;;5004132;28;20208;-62
2023/12/08 11:26:47;;;;;;;2.50;1.70;;;5.40;99.90;;;;;;5003937;28;20213;-61
2023/12/08 11:29:34;;;;;;;3.43;1.97;;;5.40;99.90;;;;;;5005099;28;20469;-62
2023/12/08 11:32:23;;;;;;;3.90;2.17;;;5.40;99.90;;;;;;4995266;28;20450;-62
2023/12/08 11:35:01;;;;;;;11.10;2.17;;;5.40;99.90;;;;;;5004354;28;20722;-62
2023/12/08 11:37:32;;;;;;;2.80;1.30;;;5.30;99.90;;;;;;5009257;28;20441;-58
2023/12/08 11:40:11;;;;;;;3.60;1.93;;;5.20;99.90;;;;;;5002017;28;20472;-58
2023/12/08 11:42:42;;;;;;;2.70;1.63;;;5.30;99.90;;;;;;4997410;28;20423;-61
2023/12/08 11:45:09;;;;;;;2.90;1.80;;;5.30;99.90;;;;;;4997861;28;20449;-61
2023/12/08 11:47:35;;;;;;;3.10;1.63;;;5.20;99.90;;;;;;5005814;28;20782;-61
2023/12/08 11:50:03;;;;;;;4.73;2.07;;;5.30;99.90;;;;;;5006167;28;20469;-61
2023/12/08 11:52:37;;;;;;;5.73;2.17;;;5.30;99.90;;;;;;4995315;28;20462;-62
2023/12/08 11:55:12;;;;;;;2.90;1.73;;;5.30;99.90;;;;;;4996921;28;20930;-62
2023/12/08 11:57:51;;;;;;;2.43;1.67;;;5.30;99.90;;;;;;5004780;28;20449;-58
2023/12/08 12:00:18;;;;;;;8.00;2.30;;;5.30;99.90;;;;;;5003999;28;20410;-58
2023/12/08 12:02:45;;;;;;;2.73;1.80;;;5.30;99.90;;;;;;5005847;28;20919;-58
2023/12/08 12:05:11;;;;;;;3.53;1.80;;;5.30;99.90;;;;;;4994382;28;20459;-61
2023/12/08 12:07:38;;;;;;;2.43;1.57;;;5.30;99.90;;;;;;4991183;28;20513;-62
2023/12/08 12:10:12;;;;;;;4.17;1.90;;;5.30;99.90;;;;;;4992994;28;20179;-62
2023/12/08 12:12:44;;;;;;;3.47;1.90;;;5.50;99.90;;;;;;4996480;28;20474;-58
2023/12/08 12:15:11;;;;;;;6.70;1.77;;;5.50;99.90;;;;;;5006134;28;20430;-60
2023/12/08 12:17:38;;;;;;;5.10;1.60;;;5.60;99.90;;;;;;4995382;28;20517;-61
2023/12/08 12:20:04;;;;;;;3.33;1.50;;;5.60;99.90;;;;;;5000594;28;20422;-61
2023/12/08 12:22:30;;;;;;;3.77;2.37;;;5.60;99.90;;;;;;4999821;28;20434;-57
2023/12/08 12:24:55;;;;;;;4.13;2.20;;;5.70;99.90;;;;;;5002246;28;20438;-57
2023/12/08 12:27:21;;;;;;;2.47;1.53;;;5.70;99.90;;;;;;4997708;28;20200;-61
2023/12/08 12:29:46;;;;;;;3.93;1.83;;;5.70;99.90;;;;;;4999076;28;20184;-61
2023/12/08 12:32:12;;;;;;;3.33;1.50;;;5.70;99.90;;;;;;5002116;28;20214;-61
2023/12/08 12:34:38;;;;;;;4.13;2.33;;;5.70;99.90;;;;;;4991137;28;20640;-62
2023/12/08 12:37:05;;;;;;;3.93;2.07;;;5.70;99.90;;;;;;5000130;28;20176;-62
2023/12/08 12:39:31;;;;;;;2.30;1.67;;;5.70;99.90;;;;;;4998183;28;20429;-62
2023/12/08 12:41:58;;;;;;;3.67;1.40;;;5.70;99.90;;;;;;4997727;28;20437;-58
2023/12/08 12:44:39;;;;;;;1.63;1.00;;;5.80;99.90;;;;;;5010321;28;20457;-59
2023/12/08 12:47:05;;;;;;;4.77;2.30;;;5.70;99.90;;;;;;5007345;28;20425;-58
2023/12/08 12:49:30;;;;;;;2.50;1.23;;;5.70;99.90;;;;;;4993910;28;20466;-59
2023/12/08 12:51:56;;;;;;;9.70;1.40;;;5.70;99.90;;;;;;4998350;28;20664;-61